createdAt,value
2023-10-10T00:00:55.834Z,14.84
2023-10-10T00:03:26.986Z,14.83
2023-10-10T00:05:59.163Z,14.84
2023-10-10T00:08:34.725Z,14.84
2023-10-10T00:11:10.565Z,14.84
2023-10-10T00:13:43.904Z,14.85
2023-10-10T00:16:21.170Z,14.88
2023-10-10T00:18:51.003Z,14.91
2023-10-10T00:21:24.387Z,14.93
2023-10-10T00:23:55.257Z,14.95
2023-10-10T00:26:24.629Z,14.96
2023-10-10T00:28:58.743Z,14.95
2023-10-10T00:31:29.977Z,14.95
2023-10-10T00:33:59.505Z,14.94
2023-10-10T00:36:34.307Z,14.91
2023-10-10T00:39:13.505Z,14.88
2023-10-10T00:41:51.981Z,14.86
2023-10-10T00:44:23.153Z,14.83
2023-10-10T00:46:56.567Z,14.80
2023-10-10T00:49:27.691Z,14.78
2023-10-10T00:52:01.066Z,14.76
2023-10-10T00:54:32.856Z,14.73
2023-10-10T00:57:05.003Z,14.70
2023-10-10T00:59:43.593Z,14.68
2023-10-10T01:02:12.948Z,14.66
2023-10-10T01:04:49.740Z,14.65
2023-10-10T01:07:20.557Z,14.64
2023-10-10T01:09:59.528Z,14.62
2023-10-10T01:12:36.818Z,14.61
2023-10-10T01:15:10.106Z,14.59
2023-10-10T01:17:39.735Z,14.58
2023-10-10T01:20:19.512Z,14.58
2023-10-10T01:22:50.145Z,14.59
2023-10-10T01:25:37.728Z,14.59
2023-10-10T01:28:15.056Z,14.58
2023-10-10T01:30:58.840Z,14.56
2023-10-10T01:33:37.236Z,14.56
2023-10-10T01:36:12.912Z,14.55
2023-10-10T01:39:08.742Z,14.55
2023-10-10T01:41:41.161Z,14.56
2023-10-10T01:44:14.302Z,14.57
2023-10-10T01:46:43.803Z,14.58
2023-10-10T01:49:21.552Z,14.59
2023-10-10T01:51:55.421Z,14.59
2023-10-10T01:54:30.458Z,14.60
2023-10-10T01:57:00.920Z,14.59
2023-10-10T01:59:36.952Z,14.61
2023-10-10T02:02:12.782Z,14.60
2023-10-10T02:04:43.252Z,14.60
2023-10-10T02:07:23.181Z,14.61
2023-10-10T02:10:02.038Z,14.61
2023-10-10T02:12:34.916Z,14.61
2023-10-10T02:15:13.030Z,14.60
2023-10-10T02:17:44.118Z,14.58
2023-10-10T02:20:27.021Z,14.54
2023-10-10T02:23:02.816Z,14.48
2023-10-10T02:25:41.376Z,14.43
2023-10-10T02:28:23.666Z,14.37
2023-10-10T02:30:53.746Z,14.31
2023-10-10T02:33:32.988Z,14.25
2023-10-10T02:36:01.944Z,14.18
2023-10-10T02:38:34.928Z,14.11
2023-10-10T02:41:22.770Z,14.05
2023-10-10T02:44:06.047Z,13.98
2023-10-10T02:46:37.262Z,13.92
2023-10-10T02:49:23.809Z,13.86
2023-10-10T02:51:56.730Z,13.82
2023-10-10T02:54:33.874Z,13.76
2023-10-10T02:57:28.168Z,13.72
2023-10-10T03:00:16.392Z,13.68
2023-10-10T03:02:54.777Z,13.66
2023-10-10T03:05:38.301Z,13.67
2023-10-10T03:08:14.918Z,13.70
2023-10-10T03:10:47.940Z,13.74
2023-10-10T03:13:32.550Z,13.78
2023-10-10T03:16:20.908Z,13.83
2023-10-10T03:18:56.465Z,13.89
2023-10-10T03:21:44.339Z,13.95
2023-10-10T03:24:31.474Z,13.99
2023-10-10T03:27:23.211Z,14.06
2023-10-10T03:29:52.393Z,14.11
2023-10-10T03:32:27.243Z,14.15
2023-10-10T03:35:06.760Z,14.17
2023-10-10T03:37:42.674Z,14.22
2023-10-10T03:40:28.399Z,14.25
2023-10-10T03:43:15.324Z,14.28
2023-10-10T03:46:02.273Z,14.30
2023-10-10T03:48:49.445Z,14.32
2023-10-10T03:51:36.122Z,14.33
2023-10-10T03:54:22.717Z,14.34
2023-10-10T03:57:09.338Z,14.35
2023-10-10T03:59:56.147Z,14.35
2023-10-10T04:02:42.687Z,14.36
2023-10-10T04:05:29.776Z,14.38
2023-10-10T04:08:16.719Z,14.39
2023-10-10T04:11:03.108Z,14.40
2023-10-10T04:13:49.433Z,14.43
2023-10-10T04:16:36.153Z,14.46
2023-10-10T04:19:23.083Z,14.50
2023-10-10T04:22:09.707Z,14.54
2023-10-10T04:24:57.008Z,14.57
2023-10-10T04:27:45.059Z,14.59
2023-10-10T04:30:31.674Z,14.61
2023-10-10T04:33:18.588Z,14.62
2023-10-10T04:36:05.095Z,14.64
2023-10-10T04:38:51.706Z,14.67
2023-10-10T04:41:38.375Z,14.69
2023-10-10T04:44:25.704Z,14.71
2023-10-10T04:47:12.541Z,14.73
2023-10-10T04:49:59.508Z,14.73
2023-10-10T04:52:46.238Z,14.73
2023-10-10T04:55:32.986Z,14.74
2023-10-10T04:58:19.693Z,14.74
2023-10-10T05:01:06.577Z,14.73
2023-10-10T05:03:53.829Z,14.72
2023-10-10T05:06:40.810Z,14.74
2023-10-10T05:09:27.610Z,14.74
2023-10-10T05:12:14.483Z,14.75
2023-10-10T05:15:01.942Z,14.76
2023-10-10T05:17:48.862Z,14.77
2023-10-10T05:20:36.097Z,14.78
2023-10-10T05:23:23.159Z,14.79
2023-10-10T05:25:52.501Z,14.81
2023-10-10T05:28:22.430Z,14.83
2023-10-10T05:30:56.706Z,14.83
2023-10-10T05:33:27.796Z,14.83
2023-10-10T05:36:01.045Z,14.84
2023-10-10T05:38:30.231Z,14.83
2023-10-10T05:41:01.598Z,14.84
2023-10-10T05:43:35.221Z,14.84
2023-10-10T05:46:05.981Z,14.85
2023-10-10T05:48:36.939Z,14.86
2023-10-10T05:51:09.500Z,14.86
2023-10-10T05:53:38.761Z,14.88
2023-10-10T05:56:15.076Z,14.88
2023-10-10T05:58:45.680Z,14.89
2023-10-10T06:01:16.146Z,14.92
2023-10-10T06:03:47.040Z,14.94
2023-10-10T06:06:19.356Z,14.98
2023-10-10T06:08:54.820Z,15.01
2023-10-10T06:11:25.241Z,15.05
2023-10-10T06:13:54.911Z,15.08
2023-10-10T06:16:25.293Z,15.10
2023-10-10T06:18:54.503Z,15.11
2023-10-10T06:21:23.558Z,15.15
2023-10-10T06:23:52.551Z,15.17
2023-10-10T06:26:23.061Z,15.19
2023-10-10T06:28:54.846Z,15.24
2023-10-10T06:31:35.341Z,15.27
2023-10-10T06:34:21.308Z,15.30
2023-10-10T06:36:51.110Z,15.36
2023-10-10T06:39:20.824Z,15.43
2023-10-10T06:41:51.689Z,15.49
2023-10-10T06:44:35.315Z,15.54
2023-10-10T06:47:10.386Z,15.58
2023-10-10T06:49:57.021Z,15.61
2023-10-10T06:52:29.007Z,15.63
2023-10-10T06:54:59.033Z,15.66
2023-10-10T06:57:42.524Z,15.70
2023-10-10T07:00:29.622Z,15.77
2023-10-10T07:02:59.667Z,15.83
2023-10-10T07:05:29.479Z,15.88
2023-10-10T07:08:13.521Z,15.95
2023-10-10T07:10:44.449Z,15.98
2023-10-10T07:13:15.327Z,16.03
2023-10-10T07:15:52.320Z,16.06
2023-10-10T07:18:24.770Z,16.15
2023-10-10T07:21:18.603Z,16.25
2023-10-10T07:24:04.214Z,16.35
2023-10-10T07:26:43.108Z,16.42
2023-10-10T07:29:29.008Z,16.52
2023-10-10T07:32:06.269Z,16.70
2023-10-10T07:34:40.478Z,16.92
2023-10-10T07:37:10.309Z,17.10
2023-10-10T07:39:56.408Z,17.24
2023-10-10T07:42:30.747Z,17.30
2023-10-10T07:45:00.331Z,17.28
2023-10-10T07:47:33.274Z,17.26
2023-10-10T07:50:09.973Z,17.20
2023-10-10T07:52:40.655Z,17.08
2023-10-10T07:55:16.555Z,17.03
2023-10-10T07:57:57.728Z,17.04
2023-10-10T08:00:36.615Z,17.11
2023-10-10T08:03:06.845Z,17.24
2023-10-10T08:05:36.099Z,17.38
2023-10-10T08:08:06.866Z,17.46
2023-10-10T08:10:39.487Z,17.52
2023-10-10T08:13:11.416Z,17.60
2023-10-10T08:15:52.095Z,17.69
2023-10-10T08:18:41.724Z,17.75
2023-10-10T08:21:12.733Z,17.82
2023-10-10T08:23:44.448Z,17.88
2023-10-10T08:26:19.181Z,17.92
2023-10-10T08:28:48.994Z,18.00
2023-10-10T08:31:18.256Z,18.10
2023-10-10T08:33:48.409Z,18.17
2023-10-10T08:36:24.683Z,18.26
2023-10-10T08:38:54.712Z,18.38
2023-10-10T08:41:26.619Z,18.54
2023-10-10T08:43:59.137Z,18.68
2023-10-10T08:46:31.172Z,18.89
2023-10-10T08:49:01.559Z,19.04
2023-10-10T08:51:35.085Z,19.18
2023-10-10T08:54:11.181Z,19.32
2023-10-10T08:56:41.938Z,19.39
2023-10-10T08:59:12.169Z,19.49
2023-10-10T09:01:43.433Z,19.53
2023-10-10T09:04:20.462Z,19.52
2023-10-10T09:06:59.778Z,19.54
2023-10-10T09:09:41.040Z,19.55
2023-10-10T09:12:15.647Z,19.55
2023-10-10T09:14:50.992Z,19.56
2023-10-10T09:17:30.817Z,19.62
2023-10-10T09:20:01.551Z,19.73
2023-10-10T09:22:35.439Z,19.81
2023-10-10T09:25:19.378Z,19.75
2023-10-10T09:28:00.325Z,19.78
2023-10-10T09:30:33.944Z,19.83
2023-10-10T09:33:14.410Z,19.84
2023-10-10T09:35:49.924Z,19.81
2023-10-10T09:38:21.933Z,19.76
2023-10-10T09:41:00.544Z,19.70
2023-10-10T09:43:36.755Z,19.59
2023-10-10T09:46:20.351Z,19.52
2023-10-10T09:49:18.826Z,19.46
2023-10-10T09:52:05.910Z,19.55
2023-10-10T09:54:37.404Z,19.73
2023-10-10T09:57:09.670Z,19.91
2023-10-10T09:59:43.259Z,19.99
2023-10-10T10:02:17.632Z,19.99
2023-10-10T10:04:46.997Z,19.98
2023-10-10T10:07:26.272Z,19.91
2023-10-10T10:10:13.425Z,19.85
2023-10-10T10:12:54.674Z,19.81
2023-10-10T10:15:30.750Z,19.77
2023-10-10T10:18:13.205Z,19.72
2023-10-10T10:21:03.991Z,19.72
2023-10-10T10:23:39.639Z,19.90
2023-10-10T10:26:11.919Z,20.14
2023-10-10T10:28:44.219Z,20.40
2023-10-10T10:31:18.088Z,20.59
2023-10-10T10:34:06.777Z,20.69
2023-10-10T10:36:43.055Z,20.72
2023-10-10T10:39:22.225Z,20.75
2023-10-10T10:41:55.305Z,20.78
2023-10-10T10:44:48.206Z,20.87
2023-10-10T10:47:37.221Z,20.97
2023-10-10T10:50:18.953Z,21.05
2023-10-10T10:52:57.648Z,21.19
2023-10-10T10:55:29.037Z,21.46
2023-10-10T10:58:09.191Z,21.71
2023-10-10T11:00:58.370Z,21.76
2023-10-10T11:03:34.371Z,21.74
2023-10-10T11:06:07.441Z,21.65
2023-10-10T11:11:29.111Z,21.51
2023-10-10T11:14:01.831Z,21.39
2023-10-10T11:16:38.274Z,21.26
2023-10-10T11:19:13.864Z,21.16
2023-10-10T11:21:50.075Z,21.13
2023-10-10T11:24:25.030Z,21.14
2023-10-10T11:27:08.489Z,21.23
2023-10-10T11:29:43.249Z,21.31
2023-10-10T11:32:13.606Z,21.36
2023-10-10T11:34:46.153Z,21.45
2023-10-10T11:37:18.732Z,21.56
2023-10-10T11:39:54.902Z,21.64
2023-10-10T11:42:27.928Z,21.77
2023-10-10T11:45:01.911Z,21.88
2023-10-10T11:47:32.193Z,21.96
2023-10-10T11:50:06.971Z,22.03
2023-10-10T11:52:36.170Z,22.07
2023-10-10T11:55:08.990Z,22.08
2023-10-10T11:57:38.162Z,22.08
2023-10-10T12:00:26.674Z,22.08
2023-10-10T12:02:58.953Z,22.11
2023-10-10T12:05:45.847Z,22.15
2023-10-10T12:08:16.805Z,22.14
2023-10-10T12:10:53.290Z,22.16
2023-10-10T12:13:34.522Z,22.16
2023-10-10T12:16:08.975Z,22.05
2023-10-10T12:18:45.396Z,21.90
2023-10-10T12:21:20.130Z,21.75
2023-10-10T12:23:49.448Z,21.57
2023-10-10T12:26:19.724Z,21.39
2023-10-10T12:28:49.555Z,21.24
2023-10-10T12:31:18.773Z,21.14
2023-10-10T12:33:49.779Z,21.03
2023-10-10T12:36:18.988Z,20.92
2023-10-10T12:38:50.115Z,20.84
2023-10-10T12:41:22.659Z,20.83
2023-10-10T12:43:52.004Z,20.82
2023-10-10T12:46:22.620Z,20.82
2023-10-10T12:48:53.287Z,20.82
2023-10-10T12:51:25.509Z,20.78
2023-10-10T12:54:01.931Z,20.72
2023-10-10T12:56:31.748Z,20.68
2023-10-10T12:59:25.220Z,20.64
2023-10-10T13:01:57.454Z,20.59
2023-10-10T13:04:31.200Z,20.53
2023-10-10T13:07:05.082Z,20.45
2023-10-10T13:09:38.552Z,20.40
2023-10-10T13:12:07.635Z,20.39
2023-10-10T13:14:37.530Z,20.42
2023-10-10T13:17:30.701Z,20.48
2023-10-10T13:20:01.111Z,20.60
2023-10-10T13:22:31.332Z,20.72
2023-10-10T13:25:00.463Z,20.85
2023-10-10T13:27:29.484Z,21.02
2023-10-10T13:29:58.574Z,21.22
2023-10-10T13:32:27.798Z,21.46
2023-10-10T13:34:56.964Z,21.72
2023-10-10T13:37:26.012Z,21.95
2023-10-10T13:39:56.813Z,22.12
2023-10-10T13:42:25.960Z,22.26
2023-10-10T13:45:09.964Z,22.36
2023-10-10T13:47:40.822Z,22.39
2023-10-10T13:50:24.613Z,22.35
2023-10-10T13:52:53.573Z,22.25
2023-10-10T13:55:22.986Z,22.16
2023-10-10T13:57:54.767Z,22.16
2023-10-10T14:00:31.023Z,22.20
2023-10-10T14:03:05.390Z,22.26
2023-10-10T14:05:36.003Z,22.28
2023-10-10T14:08:08.264Z,22.20
2023-10-10T14:10:43.551Z,22.09
2023-10-10T14:13:29.331Z,22.01
2023-10-10T14:15:59.064Z,21.97
2023-10-10T14:18:33.020Z,21.93
2023-10-10T14:21:09.684Z,21.93
2023-10-10T14:23:40.378Z,21.96
2023-10-10T14:26:18.313Z,22.03
2023-10-10T14:28:51.507Z,22.07
2023-10-10T14:31:22.685Z,22.08
2023-10-10T14:33:52.634Z,22.13
2023-10-10T14:36:22.146Z,22.21
2023-10-10T14:38:52.185Z,22.25
2023-10-10T14:41:22.699Z,22.27
2023-10-10T14:43:53.156Z,22.26
2023-10-10T14:46:24.227Z,22.25
2023-10-10T14:49:01.918Z,22.23
2023-10-10T14:51:35.271Z,22.20
2023-10-10T14:54:09.830Z,22.17
2023-10-10T14:56:40.014Z,22.13
2023-10-10T14:59:11.764Z,22.10
2023-10-10T15:01:40.938Z,22.07
2023-10-10T15:04:10.215Z,22.07
2023-10-10T15:06:42.902Z,22.06
2023-10-10T15:09:15.300Z,22.07
2023-10-10T15:11:45.421Z,22.10
2023-10-10T15:14:14.745Z,22.11
2023-10-10T15:16:47.489Z,22.12
2023-10-10T15:19:16.878Z,22.09
2023-10-10T15:21:49.492Z,22.07
2023-10-10T15:24:19.169Z,22.02
2023-10-10T15:26:52.612Z,21.95
2023-10-10T15:29:23.362Z,21.89
2023-10-10T15:31:52.847Z,21.83
2023-10-10T15:34:21.939Z,21.75
2023-10-10T15:36:51.007Z,21.67
2023-10-10T15:39:20.256Z,21.58
2023-10-10T15:41:49.514Z,21.47
2023-10-10T15:44:18.718Z,21.36
2023-10-10T15:46:47.916Z,21.26
2023-10-10T15:49:35.120Z,21.18
2023-10-10T15:52:06.119Z,21.08
2023-10-10T15:54:36.542Z,21.00
2023-10-10T15:57:10.202Z,20.91
2023-10-10T15:59:43.650Z,20.82
2023-10-10T16:02:15.322Z,20.73
2023-10-10T16:04:46.226Z,20.62
2023-10-10T16:07:17.973Z,20.51
2023-10-10T16:09:47.524Z,20.40
2023-10-10T16:12:17.603Z,20.31
2023-10-10T16:14:49.119Z,20.23
2023-10-10T16:17:18.406Z,20.14
2023-10-10T16:19:47.431Z,20.04
2023-10-10T16:22:16.562Z,19.96
2023-10-10T16:24:45.794Z,19.89
2023-10-10T16:27:15.467Z,19.80
2023-10-10T16:29:44.554Z,19.71
2023-10-10T16:32:19.412Z,19.63
2023-10-10T16:34:48.936Z,19.55
2023-10-10T16:37:19.821Z,19.48
2023-10-10T16:39:50.023Z,19.39
2023-10-10T16:42:20.790Z,19.29
2023-10-10T16:44:54.466Z,19.20
2023-10-10T16:47:23.931Z,19.09
2023-10-10T16:49:53.597Z,19.02
2023-10-10T16:52:26.702Z,18.95
2023-10-10T16:54:58.282Z,18.88
2023-10-10T16:57:27.472Z,18.82
2023-10-10T16:59:57.700Z,18.76
2023-10-10T17:02:29.814Z,18.72
2023-10-10T17:05:01.796Z,18.68
2023-10-10T17:07:31.338Z,18.65
2023-10-10T17:10:06.553Z,18.61
2023-10-10T17:12:35.825Z,18.55
2023-10-10T17:15:06.069Z,18.53
2023-10-10T17:17:36.850Z,18.50
2023-10-10T17:20:06.882Z,18.46
2023-10-10T17:22:37.024Z,18.41
2023-10-10T17:25:09.494Z,18.37
2023-10-10T17:27:39.248Z,18.33
2023-10-10T17:30:10.331Z,18.29
2023-10-10T17:32:41.233Z,18.25
2023-10-10T17:35:11.651Z,18.21
2023-10-10T17:37:40.808Z,18.17
2023-10-10T17:40:14.584Z,18.13
2023-10-10T17:42:45.794Z,18.08
2023-10-10T17:45:14.892Z,18.02
2023-10-10T17:47:44.079Z,18.01
2023-10-10T17:50:16.560Z,17.97
2023-10-10T17:52:45.536Z,17.94
2023-10-10T17:55:14.603Z,17.91
2023-10-10T17:57:44.049Z,17.88
2023-10-10T18:00:15.929Z,17.85
2023-10-10T18:02:48.102Z,17.83
2023-10-10T18:05:17.480Z,17.82
2023-10-10T18:07:46.607Z,17.82
2023-10-10T18:10:15.649Z,17.82
2023-10-10T18:12:44.957Z,17.81
2023-10-10T18:15:14.202Z,17.80
2023-10-10T18:17:43.391Z,17.81
2023-10-10T18:20:16.826Z,17.81
2023-10-10T18:22:46.983Z,17.82
2023-10-10T18:25:16.215Z,17.83
2023-10-10T18:27:46.159Z,17.85
2023-10-10T18:30:16.344Z,17.86
2023-10-10T18:32:45.447Z,17.86
2023-10-10T18:35:15.419Z,17.87
2023-10-10T18:37:45.336Z,17.87
2023-10-10T18:40:18.588Z,17.86
2023-10-10T18:42:49.227Z,17.84
2023-10-10T18:45:18.613Z,17.81
2023-10-10T18:47:49.817Z,17.78
2023-10-10T18:50:21.009Z,17.75
2023-10-10T18:52:51.197Z,17.72
2023-10-10T18:55:20.960Z,17.69
2023-10-10T18:57:57.359Z,17.68
2023-10-10T19:00:28.216Z,17.68
2023-10-10T19:02:58.900Z,17.69
2023-10-10T19:05:28.814Z,17.70
2023-10-10T19:07:58.342Z,17.70
2023-10-10T19:10:28.128Z,17.70
2023-10-10T19:12:58.000Z,17.70
2023-10-10T19:15:27.613Z,17.69
2023-10-10T19:18:00.596Z,17.68
2023-10-10T19:20:34.390Z,17.65
2023-10-10T19:23:05.904Z,17.61
2023-10-10T19:25:35.261Z,17.56
2023-10-10T19:28:04.485Z,17.51
2023-10-10T19:30:34.621Z,17.46
2023-10-10T19:33:05.684Z,17.42
2023-10-10T19:35:36.705Z,17.38
2023-10-10T19:38:09.710Z,17.37
2023-10-10T19:40:38.782Z,17.35
2023-10-10T19:43:07.864Z,17.34
2023-10-10T19:45:36.926Z,17.32
2023-10-10T19:48:07.590Z,17.33
2023-10-10T19:50:43.307Z,17.33
2023-10-10T19:53:13.809Z,17.34
2023-10-10T19:55:44.089Z,17.35
2023-10-10T19:58:13.950Z,17.35
2023-10-10T20:00:46.920Z,17.34
2023-10-10T20:03:19.334Z,17.33
2023-10-10T20:05:48.475Z,17.33
2023-10-10T20:08:18.560Z,17.33
2023-10-10T20:10:49.471Z,17.34
2023-10-10T20:13:19.523Z,17.35
2023-10-10T20:15:48.598Z,17.36
2023-10-10T20:18:17.731Z,17.37
2023-10-10T20:20:49.560Z,17.37
2023-10-10T20:23:18.602Z,17.38
2023-10-10T20:25:47.563Z,17.37
2023-10-10T20:28:16.572Z,17.39
2023-10-10T20:30:45.429Z,17.40
2023-10-10T20:33:17.251Z,17.42
2023-10-10T20:35:47.437Z,17.41
2023-10-10T20:38:20.578Z,17.40
2023-10-10T20:40:50.195Z,17.38
2023-10-10T20:43:19.916Z,17.37
2023-10-10T20:45:49.148Z,17.35
2023-10-10T20:48:23.111Z,17.33
2023-10-10T20:50:52.385Z,17.30
2023-10-10T20:53:21.869Z,17.29
2023-10-10T20:55:51.028Z,17.26
2023-10-10T20:58:20.175Z,17.25
2023-10-10T21:00:50.019Z,17.23
2023-10-10T21:03:19.220Z,17.22
2023-10-10T21:05:50.774Z,17.21
2023-10-10T21:08:20.141Z,17.21
2023-10-10T21:10:51.576Z,17.19
2023-10-10T21:13:20.796Z,17.18
2023-10-10T21:15:50.569Z,17.18
2023-10-10T21:18:20.514Z,17.16
2023-10-10T21:21:02.615Z,17.15
2023-10-10T21:23:33.704Z,17.15
2023-10-10T21:26:04.282Z,17.15
2023-10-10T21:28:33.488Z,17.15
2023-10-10T21:31:09.360Z,17.14
2023-10-10T21:33:38.546Z,17.12
2023-10-10T21:36:08.813Z,17.10
2023-10-10T21:38:38.053Z,17.09
2023-10-10T21:41:07.701Z,17.07
2023-10-10T21:43:38.350Z,17.07
2023-10-10T21:46:08.216Z,17.06
2023-10-10T21:48:37.785Z,17.05
2023-10-10T21:51:08.597Z,17.03
2023-10-10T21:53:38.900Z,17.01
2023-10-10T21:56:10.360Z,16.99
2023-10-10T21:58:40.424Z,16.96
2023-10-10T22:01:12.899Z,16.93
2023-10-10T22:03:46.173Z,16.89
2023-10-10T22:06:15.575Z,16.89
2023-10-10T22:08:45.016Z,16.85
2023-10-10T22:11:15.597Z,16.82
2023-10-10T22:13:45.103Z,16.79
2023-10-10T22:16:14.194Z,16.77
2023-10-10T22:18:47.334Z,16.75
2023-10-10T22:21:16.574Z,16.74
2023-10-10T22:23:46.489Z,16.73
2023-10-10T22:26:15.643Z,16.71
2023-10-10T22:28:44.602Z,16.71
2023-10-10T22:31:16.928Z,16.69
2023-10-10T22:33:47.283Z,16.70
2023-10-10T22:36:16.725Z,16.69
2023-10-10T22:38:47.258Z,16.68
2023-10-10T22:41:19.750Z,16.68
2023-10-10T22:43:49.758Z,16.68
2023-10-10T22:46:18.789Z,16.68
2023-10-10T22:48:47.916Z,16.69
2023-10-10T22:51:17.125Z,16.70
2023-10-10T22:53:47.310Z,16.71
2023-10-10T22:56:19.318Z,16.71
2023-10-10T22:58:50.989Z,16.71
2023-10-10T23:01:23.383Z,16.72
2023-10-10T23:03:52.796Z,16.72
2023-10-10T23:06:23.697Z,16.73
2023-10-10T23:08:53.103Z,16.75
2023-10-10T23:11:22.149Z,16.75
2023-10-10T23:13:51.124Z,16.75
2023-10-10T23:16:20.294Z,16.75
2023-10-10T23:18:49.447Z,16.74
2023-10-10T23:21:20.451Z,16.71
2023-10-10T23:23:49.994Z,16.68
2023-10-10T23:26:21.253Z,16.67
2023-10-10T23:28:53.447Z,16.65
2023-10-10T23:31:22.622Z,16.66
2023-10-10T23:33:51.870Z,16.65
2023-10-10T23:36:21.054Z,16.63
2023-10-10T23:38:50.383Z,16.61
2023-10-10T23:41:36.045Z,16.60
2023-10-10T23:44:11.515Z,16.58
2023-10-10T23:46:47.165Z,16.57
2023-10-10T23:49:16.313Z,16.56
2023-10-10T23:51:45.782Z,16.53
2023-10-10T23:54:14.801Z,16.51
2023-10-10T23:56:50.015Z,16.48
2023-10-10T23:59:21.456Z,16.43
